createdAt,value
2022-12-23T00:00:41.176Z,10.10
2022-12-23T00:03:08.508Z,10.13
2022-12-23T00:05:38.117Z,10.08
2022-12-23T00:08:07.236Z,10.14
2022-12-23T00:10:38.601Z,10.15
2022-12-23T00:13:24.025Z,10.13
2022-12-23T00:15:51.082Z,10.15
2022-12-23T00:18:18.052Z,10.17
2022-12-23T00:20:45.398Z,10.10
2022-12-23T00:23:12.569Z,10.11
2022-12-23T00:25:42.436Z,10.14
2022-12-23T00:28:18.334Z,10.19
2022-12-23T00:30:54.281Z,10.18
2022-12-23T00:33:29.727Z,10.16
2022-12-23T00:35:57.743Z,10.14
2022-12-23T00:38:44.230Z,10.19
2022-12-23T00:41:31.787Z,10.14
2022-12-23T00:43:59.631Z,10.20
2022-12-23T00:46:27.091Z,10.14
2022-12-23T00:49:13.600Z,10.16
2022-12-23T00:51:40.306Z,10.18
2022-12-23T00:54:07.668Z,10.20
2022-12-23T00:56:34.850Z,10.19
2022-12-23T00:59:02.151Z,10.19
2022-12-23T01:01:47.491Z,10.20
2022-12-23T01:04:35.200Z,10.16
2022-12-23T01:07:03.037Z,10.13
2022-12-23T01:09:30.388Z,10.16
2022-12-23T01:11:57.215Z,10.20
2022-12-23T01:14:24.602Z,10.23
2022-12-23T01:16:51.791Z,10.19
2022-12-23T01:19:19.070Z,10.21
2022-12-23T01:21:45.958Z,10.15
2022-12-23T01:24:12.817Z,10.19
2022-12-23T01:26:39.936Z,10.18
2022-12-23T01:29:06.784Z,10.21
2022-12-23T01:31:33.659Z,10.22
2022-12-23T01:34:00.776Z,10.21
2022-12-23T01:36:27.664Z,10.25
2022-12-23T01:38:56.334Z,10.25
2022-12-23T01:41:47.696Z,10.20
2022-12-23T01:44:52.935Z,10.23
2022-12-23T01:47:22.968Z,10.20
2022-12-23T01:49:52.608Z,10.22
2022-12-23T01:52:20.259Z,10.24
2022-12-23T01:54:47.104Z,10.24
2022-12-23T01:57:14.415Z,10.25
2022-12-23T02:00:01.430Z,10.24
2022-12-23T02:02:49.481Z,10.24
2022-12-23T02:05:16.904Z,10.24
2022-12-23T02:08:03.568Z,10.24
2022-12-23T02:10:57.863Z,10.21
2022-12-23T02:14:24.481Z,10.23
2022-12-23T02:17:07.532Z,10.27
2022-12-23T02:20:09.413Z,10.32
2022-12-23T02:23:01.402Z,10.24
2022-12-23T02:25:31.252Z,10.24
2022-12-23T02:28:15.893Z,10.25
2022-12-23T02:30:50.344Z,10.26
2022-12-23T02:33:30.481Z,10.29
2022-12-23T02:36:19.426Z,10.27
2022-12-23T02:39:14.355Z,10.23
2022-12-23T02:41:57.252Z,10.20
2022-12-23T02:44:38.845Z,10.17
2022-12-23T02:47:11.815Z,10.24
2022-12-23T02:49:43.899Z,10.23
2022-12-23T02:52:15.087Z,10.20
2022-12-23T02:54:54.872Z,10.15
2022-12-23T02:57:29.411Z,10.14
2022-12-23T02:59:58.048Z,10.10
2022-12-23T03:02:25.201Z,10.10
2022-12-23T03:04:52.024Z,10.13
2022-12-23T03:07:30.090Z,10.17
2022-12-23T03:10:27.957Z,10.10
2022-12-23T03:12:57.964Z,10.14
2022-12-23T03:15:35.348Z,10.15
2022-12-23T03:18:21.211Z,10.18
2022-12-23T03:21:10.577Z,10.23
2022-12-23T03:23:55.672Z,10.20
2022-12-23T03:26:40.767Z,10.22
2022-12-23T03:29:28.485Z,10.20
2022-12-23T03:31:59.364Z,10.24
2022-12-23T03:34:32.357Z,10.19
2022-12-23T03:37:05.429Z,10.16
2022-12-23T03:39:37.692Z,10.18
2022-12-23T03:42:16.363Z,10.16
2022-12-23T03:45:10.591Z,10.19
2022-12-23T03:47:45.342Z,10.20
2022-12-23T03:50:15.729Z,10.14
2022-12-23T03:52:59.959Z,10.14
2022-12-23T03:55:33.480Z,10.11
2022-12-23T03:58:22.619Z,10.09
2022-12-23T04:01:17.950Z,10.11
2022-12-23T04:04:10.827Z,10.17
2022-12-23T04:06:53.802Z,10.08
2022-12-23T04:09:24.528Z,10.13
2022-12-23T04:11:51.705Z,10.10
2022-12-23T04:14:20.400Z,10.09
2022-12-23T04:16:50.452Z,10.10
2022-12-23T04:19:17.363Z,10.10
2022-12-23T04:21:44.992Z,10.09
2022-12-23T04:24:11.874Z,10.06
2022-12-23T04:26:38.853Z,10.04
2022-12-23T04:29:05.848Z,10.03
2022-12-23T04:31:32.740Z,10.05
2022-12-23T04:33:59.745Z,10.01
2022-12-23T04:36:26.986Z,10.04
2022-12-23T04:38:54.866Z,10.04
2022-12-23T04:41:21.797Z,10.06
2022-12-23T04:43:52.962Z,10.04
2022-12-23T04:46:21.708Z,10.03
2022-12-23T04:48:48.856Z,10.02
2022-12-23T04:51:15.867Z,10.03
2022-12-23T04:53:42.730Z,10.02
2022-12-23T04:56:09.891Z,10.00
2022-12-23T04:58:36.821Z,10.01
2022-12-23T05:01:07.033Z,9.98
2022-12-23T05:03:35.193Z,9.98
2022-12-23T05:06:02.501Z,10.01
2022-12-23T05:08:30.430Z,9.96
2022-12-23T05:10:57.467Z,10.00
2022-12-23T05:13:24.393Z,9.93
2022-12-23T05:15:53.238Z,9.94
2022-12-23T05:18:21.150Z,9.94
2022-12-23T05:20:49.218Z,9.93
2022-12-23T05:23:15.983Z,9.99
2022-12-23T05:25:42.938Z,9.94
2022-12-23T05:28:10.550Z,9.94
2022-12-23T05:30:37.786Z,9.97
2022-12-23T05:33:04.762Z,9.96
2022-12-23T05:35:31.600Z,9.95
2022-12-23T05:37:58.561Z,9.95
2022-12-23T05:40:29.672Z,9.94
2022-12-23T05:42:57.925Z,9.96
2022-12-23T05:45:25.214Z,9.96
2022-12-23T05:47:52.392Z,9.99
2022-12-23T05:50:20.319Z,9.97
2022-12-23T05:52:47.175Z,9.96
2022-12-23T05:55:13.897Z,9.97
2022-12-23T05:57:41.424Z,9.98
2022-12-23T06:00:09.516Z,9.93
2022-12-23T06:02:36.639Z,9.93
2022-12-23T06:05:03.890Z,9.94
2022-12-23T06:07:31.785Z,9.94
2022-12-23T06:09:58.925Z,9.97
2022-12-23T06:12:25.781Z,9.92
2022-12-23T06:14:52.460Z,9.90
2022-12-23T06:17:19.710Z,9.90
2022-12-23T06:19:47.481Z,9.94
2022-12-23T06:22:14.862Z,9.98
2022-12-23T06:24:41.775Z,9.94
2022-12-23T06:27:08.527Z,9.91
2022-12-23T06:29:35.687Z,9.91
2022-12-23T06:32:02.978Z,9.95
2022-12-23T06:34:31.498Z,9.94
2022-12-23T06:36:59.567Z,9.93
2022-12-23T06:39:28.873Z,9.98
2022-12-23T06:41:55.685Z,9.95
2022-12-23T06:44:22.503Z,9.94
2022-12-23T06:46:49.664Z,9.91
2022-12-23T06:49:16.836Z,9.89
2022-12-23T06:51:43.481Z,9.89
2022-12-23T06:54:11.961Z,9.92
2022-12-23T06:56:39.796Z,9.89
2022-12-23T06:59:06.706Z,9.87
2022-12-23T07:01:33.685Z,9.89
2022-12-23T07:04:01.942Z,9.90
2022-12-23T07:06:29.851Z,9.87
2022-12-23T07:08:56.696Z,9.95
2022-12-23T07:11:24.228Z,9.88
2022-12-23T07:13:51.284Z,9.88
2022-12-23T07:16:18.252Z,9.88
2022-12-23T07:18:46.915Z,9.90
2022-12-23T07:21:22.908Z,9.92
2022-12-23T07:23:55.383Z,9.86
2022-12-23T07:26:23.013Z,9.91
2022-12-23T07:28:50.146Z,9.91
2022-12-23T07:31:17.388Z,9.89
2022-12-23T07:33:44.636Z,9.90
2022-12-23T07:36:11.999Z,9.88
2022-12-23T07:38:39.559Z,9.98
2022-12-23T07:41:06.188Z,9.93
2022-12-23T07:43:33.275Z,9.90
2022-12-23T07:46:06.452Z,9.91
2022-12-23T07:48:33.979Z,9.89
2022-12-23T07:51:02.212Z,9.88
2022-12-23T07:53:29.561Z,9.86
2022-12-23T07:55:57.137Z,9.87
2022-12-23T07:58:24.798Z,9.88
2022-12-23T08:00:59.492Z,9.87
2022-12-23T08:03:26.784Z,9.87
2022-12-23T08:06:07.170Z,9.87
2022-12-23T08:08:35.198Z,9.91
2022-12-23T08:11:07.576Z,9.91
2022-12-23T08:13:37.968Z,9.92
2022-12-23T08:16:07.231Z,9.88
2022-12-23T08:18:37.987Z,9.89
2022-12-23T08:21:07.931Z,9.92
2022-12-23T08:23:35.986Z,9.94
2022-12-23T08:26:15.733Z,9.94
2022-12-23T08:28:44.637Z,9.96
2022-12-23T08:31:19.440Z,9.92
2022-12-23T08:33:56.625Z,9.94
2022-12-23T08:36:29.372Z,9.94
2022-12-23T08:38:59.410Z,9.99
2022-12-23T08:41:29.908Z,9.96
2022-12-23T08:43:57.763Z,10.01
2022-12-23T08:46:24.914Z,10.01
2022-12-23T08:48:53.161Z,10.05
2022-12-23T08:51:22.137Z,10.03
2022-12-23T08:53:53.523Z,10.04
2022-12-23T08:56:25.828Z,10.04
2022-12-23T08:58:54.261Z,10.03
2022-12-23T09:01:23.619Z,10.03
2022-12-23T09:03:51.637Z,10.04
2022-12-23T09:06:31.884Z,10.07
2022-12-23T09:08:59.355Z,10.07
2022-12-23T09:11:29.111Z,10.07
2022-12-23T09:13:57.896Z,10.08
2022-12-23T09:16:26.246Z,10.06
2022-12-23T09:18:53.403Z,10.06
2022-12-23T09:21:22.009Z,10.03
2022-12-23T09:23:49.182Z,10.07
2022-12-23T09:26:23.353Z,10.06
2022-12-23T09:28:50.584Z,10.02
2022-12-23T09:31:18.763Z,10.02
2022-12-23T09:33:51.088Z,10.06
2022-12-23T09:36:18.514Z,10.05
2022-12-23T09:38:46.171Z,10.07
2022-12-23T09:41:21.149Z,10.13
2022-12-23T09:43:58.677Z,10.10
2022-12-23T09:46:30.451Z,10.06
2022-12-23T09:49:02.946Z,10.08
2022-12-23T09:51:30.898Z,10.08
2022-12-23T09:54:19.342Z,10.08
2022-12-23T09:57:18.955Z,10.14
2022-12-23T10:00:07.929Z,10.14
2022-12-23T10:02:53.628Z,10.19
2022-12-23T10:05:35.363Z,10.21
2022-12-23T10:08:12.557Z,10.19
2022-12-23T10:10:44.501Z,10.23
2022-12-23T10:13:29.669Z,10.26
2022-12-23T10:16:21.196Z,10.30
2022-12-23T10:19:18.116Z,10.29
2022-12-23T10:21:52.558Z,10.29
2022-12-23T10:24:19.500Z,10.33
2022-12-23T10:26:54.047Z,10.33
2022-12-23T10:29:23.712Z,10.33
2022-12-23T10:32:23.263Z,10.32
2022-12-23T10:35:11.792Z,10.29
2022-12-23T10:37:51.645Z,10.33
2022-12-23T10:40:35.067Z,10.36
2022-12-23T10:43:22.161Z,10.37
2022-12-23T10:46:27.920Z,10.38
2022-12-23T10:49:13.837Z,10.39
2022-12-23T10:51:48.805Z,10.40
2022-12-23T10:54:31.323Z,10.35
2022-12-23T10:56:58.624Z,10.36
2022-12-23T10:59:28.129Z,10.36
2022-12-23T11:02:01.714Z,10.39
2022-12-23T11:04:35.558Z,10.40
2022-12-23T11:07:34.331Z,10.39
2022-12-23T11:09:58.728Z,10.29
2022-12-23T11:12:42.651Z,10.37
2022-12-23T11:15:27.746Z,10.34
2022-12-23T11:18:17.087Z,10.37
2022-12-23T11:21:05.275Z,10.44
2022-12-23T11:23:35.817Z,10.49
2022-12-23T11:26:10.613Z,10.47
2022-12-23T11:28:40.792Z,10.53
2022-12-23T11:31:14.674Z,10.54
2022-12-23T11:33:59.642Z,10.53
2022-12-23T11:36:28.943Z,10.49
2022-12-23T11:38:58.554Z,10.51
2022-12-23T11:41:29.515Z,10.48
2022-12-23T11:44:00.607Z,10.45
2022-12-23T11:46:30.677Z,10.44
2022-12-23T11:49:06.899Z,10.49
2022-12-23T11:51:33.975Z,10.49
2022-12-23T11:54:02.590Z,10.56
2022-12-23T11:56:38.381Z,10.62
2022-12-23T11:59:22.652Z,10.66
2022-12-23T12:01:50.696Z,10.65
2022-12-23T12:04:22.166Z,10.68
2022-12-23T12:06:56.129Z,10.67
2022-12-23T12:09:24.855Z,10.67
2022-12-23T12:12:05.617Z,10.66
2022-12-23T12:15:01.746Z,10.58
2022-12-23T12:17:39.600Z,10.55
2022-12-23T12:20:14.558Z,10.57
2022-12-23T12:22:48.883Z,10.54
2022-12-23T12:25:39.576Z,10.50
2022-12-23T12:28:13.682Z,10.47
2022-12-23T12:31:03.200Z,10.47
2022-12-23T12:33:40.859Z,10.43
2022-12-23T12:36:27.412Z,10.48
2022-12-23T12:38:57.992Z,10.42
2022-12-23T12:41:34.214Z,10.34
2022-12-23T12:44:20.166Z,10.31
2022-12-23T12:46:53.967Z,10.34
2022-12-23T12:50:14.121Z,10.34
2022-12-23T12:52:43.058Z,10.29
2022-12-23T12:55:22.475Z,10.30
2022-12-23T12:57:49.531Z,10.30
2022-12-23T13:00:19.974Z,10.24
2022-12-23T13:03:22.087Z,10.22
2022-12-23T13:06:17.334Z,10.26
2022-12-23T13:08:47.400Z,10.21
2022-12-23T13:11:44.184Z,10.22
2022-12-23T13:14:29.838Z,10.29
2022-12-23T13:17:15.688Z,10.33
2022-12-23T13:20:03.448Z,10.31
2022-12-23T13:22:33.624Z,10.20
2022-12-23T13:25:08.957Z,10.16
2022-12-23T13:27:56.276Z,10.18
2022-12-23T13:30:27.236Z,10.22
2022-12-23T13:33:16.105Z,10.20
2022-12-23T13:36:05.435Z,10.11
2022-12-23T13:38:39.462Z,10.17
2022-12-23T13:41:21.670Z,10.19
2022-12-23T13:43:56.458Z,10.15
2022-12-23T13:46:42.210Z,10.09
2022-12-23T13:49:21.228Z,10.08
2022-12-23T13:52:00.454Z,10.08
2022-12-23T13:54:42.228Z,10.08
2022-12-23T13:57:44.639Z,10.05
2022-12-23T14:00:17.725Z,9.98
2022-12-23T14:03:03.511Z,9.98
2022-12-23T14:05:50.889Z,9.97
2022-12-23T14:08:31.044Z,9.95
2022-12-23T14:11:00.732Z,9.92
2022-12-23T14:13:31.654Z,9.99
2022-12-23T14:16:19.506Z,9.87
2022-12-23T14:18:55.497Z,9.85
2022-12-23T14:21:31.755Z,9.83
2022-12-23T14:24:14.685Z,9.84
2022-12-23T14:26:47.821Z,9.91
2022-12-23T14:29:14.551Z,9.79
2022-12-23T14:31:44.913Z,9.75
2022-12-23T14:34:17.956Z,9.72
2022-12-23T14:37:23.054Z,9.72
2022-12-23T14:39:51.267Z,9.71
2022-12-23T14:42:35.069Z,9.75
2022-12-23T14:45:35.909Z,9.74
2022-12-23T14:48:34.424Z,9.74
2022-12-23T14:51:01.321Z,9.72
2022-12-23T14:53:29.994Z,9.79
2022-12-23T14:56:35.392Z,9.76
2022-12-23T14:59:16.323Z,9.78
2022-12-23T15:01:56.741Z,9.79
2022-12-23T15:04:34.610Z,9.79
2022-12-23T15:07:15.154Z,9.75
2022-12-23T15:09:58.665Z,9.79
2022-12-23T15:12:46.109Z,9.82
2022-12-23T15:15:13.649Z,9.80
2022-12-23T15:17:40.812Z,9.81
2022-12-23T15:20:20.603Z,9.86
2022-12-23T15:22:49.005Z,9.88
2022-12-23T15:25:25.156Z,9.82
2022-12-23T15:28:00.813Z,9.81
2022-12-23T15:30:36.603Z,9.83
2022-12-23T15:33:21.832Z,9.85
2022-12-23T15:35:54.501Z,9.96
2022-12-23T15:38:27.825Z,9.99
2022-12-23T15:41:01.097Z,10.03
2022-12-23T15:43:29.747Z,10.10
2022-12-23T15:46:08.191Z,10.09
2022-12-23T15:48:35.676Z,10.22
2022-12-23T15:51:11.093Z,10.28
2022-12-23T15:53:42.470Z,10.38
2022-12-23T15:56:19.849Z,10.44
2022-12-23T15:58:47.433Z,10.58
2022-12-23T16:01:16.971Z,10.73
2022-12-23T16:03:50.399Z,10.89
2022-12-23T16:06:23.099Z,10.99
2022-12-23T16:08:59.656Z,11.12
2022-12-23T16:11:40.885Z,11.18
2022-12-23T16:14:40.983Z,11.16
2022-12-23T16:17:08.229Z,11.18
2022-12-23T16:20:13.228Z,11.20
2022-12-23T16:22:40.185Z,11.20
2022-12-23T16:25:22.353Z,11.20
2022-12-23T16:27:59.012Z,11.22
2022-12-23T16:30:38.078Z,11.21
2022-12-23T16:33:22.748Z,11.21
2022-12-23T16:35:49.617Z,11.25
2022-12-23T16:38:25.047Z,11.27
2022-12-23T16:40:56.935Z,11.23
2022-12-23T16:43:25.226Z,11.21
2022-12-23T16:45:55.959Z,11.18
2022-12-23T16:48:23.194Z,11.21
2022-12-23T16:50:52.508Z,11.14
2022-12-23T16:53:20.410Z,11.10
2022-12-23T16:55:53.824Z,11.14
2022-12-23T16:58:25.480Z,11.31
2022-12-23T17:00:53.468Z,11.37
2022-12-23T17:03:20.989Z,11.45
2022-12-23T17:05:48.827Z,11.52
2022-12-23T17:08:15.695Z,11.69
2022-12-23T17:10:47.036Z,11.79
2022-12-23T17:13:16.781Z,11.88
2022-12-23T17:15:44.519Z,11.91
2022-12-23T17:18:18.680Z,11.95
2022-12-23T17:20:47.715Z,12.05
2022-12-23T17:23:34.700Z,12.06
2022-12-23T17:26:01.828Z,12.11
2022-12-23T17:28:32.238Z,12.22
2022-12-23T17:31:00.489Z,12.25
2022-12-23T17:33:30.198Z,12.18
2022-12-23T17:35:57.512Z,12.17
2022-12-23T17:38:24.833Z,12.19
2022-12-23T17:40:52.154Z,12.22
2022-12-23T17:43:19.267Z,12.27
2022-12-23T17:45:47.054Z,12.27
2022-12-23T17:48:20.806Z,12.26
2022-12-23T17:50:51.139Z,12.19
2022-12-23T17:53:19.841Z,12.26
2022-12-23T17:55:46.858Z,12.23
2022-12-23T17:58:14.565Z,12.21
2022-12-23T18:00:41.605Z,12.23
2022-12-23T18:03:22.447Z,12.13
2022-12-23T18:05:52.980Z,12.03
2022-12-23T18:08:24.162Z,12.12
2022-12-23T18:10:51.600Z,12.15
2022-12-23T18:13:20.335Z,12.09
2022-12-23T18:15:48.716Z,12.04
2022-12-23T18:18:28.628Z,12.06
2022-12-23T18:21:01.108Z,12.02
2022-12-23T18:23:32.172Z,12.01
2022-12-23T18:26:00.307Z,12.05
2022-12-23T18:28:27.791Z,12.05
2022-12-23T18:30:56.770Z,12.12
2022-12-23T18:33:28.500Z,12.02
2022-12-23T18:35:56.116Z,12.08
2022-12-23T18:38:23.699Z,12.04
2022-12-23T18:40:53.927Z,12.01
2022-12-23T18:43:25.274Z,12.01
2022-12-23T18:45:53.919Z,11.92
2022-12-23T18:48:21.941Z,11.88
2022-12-23T18:50:49.144Z,11.84
2022-12-23T18:53:23.655Z,11.86
2022-12-23T18:55:52.764Z,11.83
2022-12-23T18:58:20.378Z,11.81
2022-12-23T19:00:49.404Z,11.85
2022-12-23T19:03:28.537Z,11.80
2022-12-23T19:05:57.033Z,11.81
2022-12-23T19:08:27.539Z,11.85
2022-12-23T19:10:56.028Z,11.78
2022-12-23T19:13:23.657Z,11.82
2022-12-23T19:15:51.238Z,11.73
2022-12-23T19:18:21.290Z,11.78
2022-12-23T19:20:49.426Z,11.71
2022-12-23T19:23:17.689Z,11.79
2022-12-23T19:25:52.517Z,11.74
2022-12-23T19:28:22.690Z,11.82
2022-12-23T19:30:50.098Z,11.83
2022-12-23T19:33:17.284Z,11.78
2022-12-23T19:35:44.961Z,11.72
2022-12-23T19:38:12.442Z,11.68
2022-12-23T19:40:40.756Z,11.71
2022-12-23T19:43:07.771Z,11.68
2022-12-23T19:45:34.571Z,11.62
2022-12-23T19:48:01.494Z,11.71
2022-12-23T19:50:28.919Z,11.65
2022-12-23T19:52:56.649Z,11.73
2022-12-23T19:55:24.204Z,11.67
2022-12-23T19:57:52.318Z,11.62
2022-12-23T20:00:20.000Z,11.68
2022-12-23T20:02:47.418Z,11.70
2022-12-23T20:05:17.094Z,11.75
2022-12-23T20:07:43.814Z,11.78
2022-12-23T20:10:11.136Z,11.75
2022-12-23T20:12:39.255Z,11.77
2022-12-23T20:15:06.862Z,11.71
2022-12-23T20:17:33.875Z,11.68
2022-12-23T20:20:01.246Z,11.72
2022-12-23T20:22:28.334Z,11.77
2022-12-23T20:24:55.682Z,11.82
2022-12-23T20:27:27.896Z,11.86
2022-12-23T20:29:55.351Z,11.80
2022-12-23T20:32:22.754Z,11.75
2022-12-23T20:34:50.292Z,11.79
2022-12-23T20:37:17.684Z,11.84
2022-12-23T20:39:44.605Z,11.77
2022-12-23T20:42:11.356Z,11.70
2022-12-23T20:44:38.202Z,11.78
2022-12-23T20:47:06.344Z,11.71
2022-12-23T20:49:34.659Z,11.72
2022-12-23T20:52:01.672Z,11.62
2022-12-23T20:54:33.216Z,11.53
2022-12-23T20:57:01.960Z,11.57
2022-12-23T20:59:29.075Z,11.50
2022-12-23T21:01:58.777Z,11.56
2022-12-23T21:04:27.333Z,11.57
2022-12-23T21:06:54.324Z,11.54
2022-12-23T21:09:21.088Z,11.53
2022-12-23T21:11:48.388Z,11.46
2022-12-23T21:14:16.242Z,11.41
2022-12-23T21:16:44.163Z,11.34
2022-12-23T21:19:24.868Z,11.28
2022-12-23T21:21:52.562Z,11.20
2022-12-23T21:24:20.121Z,11.26
2022-12-23T21:26:55.717Z,11.25
2022-12-23T21:29:24.321Z,11.23
2022-12-23T21:31:51.394Z,11.25
2022-12-23T21:34:18.648Z,11.26
2022-12-23T21:36:46.158Z,11.26
2022-12-23T21:39:15.787Z,11.27
2022-12-23T21:41:43.542Z,11.29
2022-12-23T21:44:13.676Z,11.29
2022-12-23T21:46:40.828Z,11.30
2022-12-23T21:49:07.711Z,11.30
2022-12-23T21:51:40.308Z,11.26
2022-12-23T21:54:10.673Z,11.27
2022-12-23T21:56:38.446Z,11.25
2022-12-23T21:59:08.760Z,11.26
2022-12-23T22:01:36.386Z,11.27
2022-12-23T22:04:03.855Z,11.27
2022-12-23T22:06:33.164Z,11.23
2022-12-23T22:09:00.236Z,11.21
2022-12-23T22:11:29.516Z,11.19
2022-12-23T22:13:59.240Z,11.18
2022-12-23T22:16:28.103Z,11.27
2022-12-23T22:18:57.086Z,11.23
2022-12-23T22:21:26.147Z,11.22
2022-12-23T22:23:54.033Z,11.22
2022-12-23T22:26:25.679Z,11.20
2022-12-23T22:28:55.124Z,11.25
2022-12-23T22:31:40.499Z,11.28
2022-12-23T22:34:08.612Z,11.21
2022-12-23T22:36:35.891Z,11.18
2022-12-23T22:39:03.666Z,11.21
2022-12-23T22:41:32.101Z,11.31
2022-12-23T22:43:59.887Z,11.31
2022-12-23T22:46:27.547Z,11.31
2022-12-23T22:48:54.779Z,11.31
2022-12-23T22:51:27.883Z,11.24
2022-12-23T22:53:56.114Z,11.28
2022-12-23T22:56:24.908Z,11.27
2022-12-23T22:58:53.035Z,11.27
2022-12-23T23:01:22.677Z,11.18
2022-12-23T23:03:56.921Z,11.22
2022-12-23T23:06:30.295Z,11.26
2022-12-23T23:08:58.140Z,11.21
2022-12-23T23:11:27.342Z,11.20
2022-12-23T23:13:54.830Z,11.22
2022-12-23T23:16:22.314Z,11.28
2022-12-23T23:18:50.063Z,11.21
2022-12-23T23:21:17.781Z,11.22
2022-12-23T23:23:46.798Z,11.22
2022-12-23T23:26:14.998Z,11.27
2022-12-23T23:28:42.330Z,11.21
2022-12-23T23:31:40.391Z,11.21
2022-12-23T23:33:58.070Z,11.26
2022-12-23T23:36:25.448Z,11.22
2022-12-23T23:38:52.288Z,11.15
2022-12-23T23:41:23.186Z,11.17
2022-12-23T23:43:51.997Z,11.19
2022-12-23T23:46:19.874Z,11.18
2022-12-23T23:48:47.659Z,11.16
2022-12-23T23:51:15.087Z,11.15
2022-12-23T23:53:42.341Z,11.18
2022-12-23T23:56:09.807Z,11.17
2022-12-23T23:58:37.696Z,11.09
